createdAt,value
2023-02-08T00:01:45.634Z,99.90
2023-02-08T00:04:13.759Z,99.90
2023-02-08T00:06:41.865Z,99.90
2023-02-08T00:09:12.177Z,99.90
2023-02-08T00:11:40.448Z,99.90
2023-02-08T00:14:10.844Z,99.90
2023-02-08T00:16:39.045Z,99.90
2023-02-08T00:19:08.510Z,99.90
2023-02-08T00:21:36.673Z,99.90
2023-02-08T00:24:05.086Z,99.90
2023-02-08T00:26:35.499Z,99.90
2023-02-08T00:29:03.703Z,99.90
2023-02-08T00:31:31.880Z,99.90
2023-02-08T00:33:59.991Z,99.90
2023-02-08T00:36:29.475Z,99.90
2023-02-08T00:38:57.585Z,99.90
2023-02-08T00:41:27.757Z,99.90
2023-02-08T00:43:55.855Z,99.90
2023-02-08T00:46:24.077Z,99.90
2023-02-08T00:48:52.176Z,99.90
2023-02-08T00:51:20.452Z,99.90
2023-02-08T00:53:52.355Z,99.90
2023-02-08T00:56:20.476Z,99.90
2023-02-08T00:58:48.633Z,99.90
2023-02-08T01:01:18.540Z,99.90
2023-02-08T01:03:49.673Z,99.90
2023-02-08T01:06:19.365Z,99.90
2023-02-08T01:08:49.816Z,99.90
2023-02-08T01:11:22.808Z,99.90
2023-02-08T01:13:51.276Z,99.90
2023-02-08T01:16:23.507Z,99.90
2023-02-08T01:18:54.211Z,99.90
2023-02-08T01:21:24.610Z,99.90
2023-02-08T01:23:53.539Z,99.90
2023-02-08T01:26:26.577Z,99.90
2023-02-08T01:28:56.288Z,99.90
2023-02-08T01:31:29.950Z,99.90
2023-02-08T01:33:58.461Z,99.90
2023-02-08T01:36:30.174Z,99.90
2023-02-08T01:39:01.942Z,99.90
2023-02-08T01:41:36.723Z,99.90
2023-02-08T01:44:10.225Z,99.90
2023-02-08T01:46:42.561Z,99.90
2023-02-08T01:49:17.496Z,99.90
2023-02-08T01:51:53.843Z,99.90
2023-02-08T01:54:34.081Z,99.90
2023-02-08T01:57:04.357Z,99.90
2023-02-08T01:59:38.992Z,99.90
2023-02-08T02:02:13.570Z,99.90
2023-02-08T02:04:44.753Z,99.90
2023-02-08T02:07:15.746Z,99.90
2023-02-08T02:09:48.532Z,99.90
2023-02-08T02:12:19.045Z,99.90
2023-02-08T02:14:47.307Z,99.90
2023-02-08T02:17:17.624Z,99.90
2023-02-08T02:19:53.760Z,99.90
2023-02-08T02:23:02.927Z,99.90
2023-02-08T02:25:57.465Z,99.90
2023-02-08T02:29:13.240Z,99.90
2023-02-08T02:32:07.517Z,99.90
2023-02-08T02:34:44.533Z,99.90
2023-02-08T02:37:20.800Z,99.90
2023-02-08T02:40:06.553Z,99.90
2023-02-08T02:43:04.811Z,99.90
2023-02-08T02:45:37.535Z,99.90
2023-02-08T02:48:14.648Z,99.90
2023-02-08T02:50:47.633Z,99.90
2023-02-08T02:53:21.448Z,99.90
2023-02-08T02:55:54.348Z,99.90
2023-02-08T02:58:24.253Z,99.90
2023-02-08T03:00:55.334Z,99.90
2023-02-08T03:03:31.514Z,99.90
2023-02-08T03:06:03.794Z,99.90
2023-02-08T03:09:03.788Z,99.90
2023-02-08T03:11:36.720Z,99.90
2023-02-08T03:14:20.623Z,99.90
2023-02-08T03:17:07.777Z,99.90
2023-02-08T03:19:47.936Z,99.90
2023-02-08T03:22:24.372Z,99.90
2023-02-08T03:24:56.141Z,99.90
2023-02-08T03:27:33.088Z,99.90
2023-02-08T03:30:06.759Z,99.90
2023-02-08T03:32:42.726Z,99.90
2023-02-08T03:35:20.138Z,99.90
2023-02-08T03:37:56.138Z,99.90
2023-02-08T03:40:29.463Z,99.90
2023-02-08T03:43:02.155Z,99.90
2023-02-08T03:45:37.516Z,99.90
2023-02-08T03:48:09.674Z,99.90
2023-02-08T03:50:41.987Z,99.90
2023-02-08T03:53:13.295Z,99.90
2023-02-08T03:55:48.098Z,99.90
2023-02-08T03:58:24.738Z,99.90
2023-02-08T04:00:57.355Z,99.90
2023-02-08T04:03:28.349Z,99.90
2023-02-08T04:05:58.176Z,99.90
2023-02-08T04:08:28.422Z,99.90
2023-02-08T04:10:59.430Z,99.90
2023-02-08T04:13:27.520Z,99.90
2023-02-08T04:15:55.610Z,99.90
2023-02-08T04:18:26.018Z,99.90
2023-02-08T04:20:57.886Z,99.90
2023-02-08T04:23:25.975Z,99.90
2023-02-08T04:25:54.069Z,99.90
2023-02-08T04:28:22.279Z,99.90
2023-02-08T04:30:52.615Z,99.90
2023-02-08T04:33:20.906Z,99.90
2023-02-08T04:35:49.009Z,99.90
2023-02-08T04:38:18.489Z,99.90
2023-02-08T04:40:46.740Z,99.90
2023-02-08T04:43:14.836Z,99.90
2023-02-08T04:45:44.975Z,99.90
2023-02-08T04:48:15.131Z,99.90
2023-02-08T04:50:43.850Z,99.90
2023-02-08T04:53:14.474Z,99.90
2023-02-08T04:55:43.937Z,99.90
2023-02-08T04:58:12.009Z,99.90
2023-02-08T05:00:42.734Z,99.90
2023-02-08T05:03:13.368Z,99.90
2023-02-08T05:05:41.835Z,99.90
2023-02-08T05:08:10.015Z,99.90
2023-02-08T05:10:38.283Z,99.90
2023-02-08T05:13:07.856Z,99.90
2023-02-08T05:15:36.197Z,99.90
2023-02-08T05:18:06.756Z,99.90
2023-02-08T05:20:34.850Z,99.90
2023-02-08T05:23:02.982Z,99.90
2023-02-08T05:25:31.116Z,99.90
2023-02-08T05:28:00.398Z,99.90
2023-02-08T05:30:32.525Z,99.90
2023-02-08T05:33:00.717Z,99.90
2023-02-08T05:35:28.946Z,99.90
2023-02-08T05:37:59.545Z,99.90
2023-02-08T05:40:27.692Z,99.90
2023-02-08T05:42:55.751Z,99.90
2023-02-08T05:45:26.229Z,99.90
2023-02-08T05:47:57.785Z,99.90
2023-02-08T05:50:28.238Z,99.90
2023-02-08T05:52:58.685Z,99.90
2023-02-08T05:55:28.223Z,99.90
2023-02-08T05:57:56.392Z,99.90
2023-02-08T06:00:26.924Z,99.90
2023-02-08T06:02:55.143Z,99.90
2023-02-08T06:05:27.683Z,99.90
2023-02-08T06:07:55.789Z,99.90
2023-02-08T06:10:24.018Z,99.90
2023-02-08T06:12:52.202Z,99.90
2023-02-08T06:15:22.780Z,99.90
2023-02-08T06:17:51.449Z,99.90
2023-02-08T06:20:19.701Z,99.90
2023-02-08T06:22:49.252Z,99.90
2023-02-08T06:25:19.904Z,99.90
2023-02-08T06:27:48.067Z,99.90
2023-02-08T06:30:17.444Z,99.90
2023-02-08T06:32:45.599Z,99.90
2023-02-08T06:35:15.954Z,99.90
2023-02-08T06:37:48.068Z,99.90
2023-02-08T06:40:16.247Z,99.90
2023-02-08T06:42:47.937Z,99.90
2023-02-08T06:45:18.858Z,99.90
2023-02-08T06:47:49.406Z,99.90
2023-02-08T06:50:17.873Z,99.90
2023-02-08T06:52:46.130Z,99.90
2023-02-08T06:55:18.263Z,99.90
2023-02-08T06:57:46.408Z,99.90
2023-02-08T07:00:17.336Z,99.90
2023-02-08T07:02:48.297Z,99.90
2023-02-08T07:05:16.495Z,99.90
2023-02-08T07:07:48.485Z,99.90
2023-02-08T07:10:18.302Z,99.90
2023-02-08T07:12:46.385Z,99.90
2023-02-08T07:15:16.776Z,99.90
2023-02-08T07:17:44.859Z,99.90
2023-02-08T07:20:13.539Z,99.90
2023-02-08T07:22:42.128Z,99.90
2023-02-08T07:25:10.999Z,99.90
2023-02-08T07:27:40.589Z,99.90
2023-02-08T07:30:10.023Z,99.90
2023-02-08T07:32:40.864Z,99.90
2023-02-08T07:35:11.538Z,99.90
2023-02-08T07:37:39.665Z,99.90
2023-02-08T07:40:08.543Z,99.90
2023-02-08T07:42:37.728Z,99.90
2023-02-08T07:45:18.737Z,99.90
2023-02-08T07:47:47.509Z,99.90
2023-02-08T07:50:18.241Z,99.90
2023-02-08T07:52:47.515Z,99.90
2023-02-08T07:55:17.098Z,99.90
2023-02-08T07:57:45.549Z,99.90
2023-02-08T08:00:15.151Z,99.90
2023-02-08T08:02:44.706Z,99.90
2023-02-08T08:05:13.098Z,99.90
2023-02-08T08:07:41.207Z,99.90
2023-02-08T08:10:11.688Z,99.90
2023-02-08T08:12:39.841Z,99.90
2023-02-08T08:15:08.890Z,99.90
2023-02-08T08:17:36.950Z,99.90
2023-02-08T08:20:09.835Z,99.90
2023-02-08T08:22:37.994Z,99.90
2023-02-08T08:25:08.626Z,99.90
2023-02-08T08:27:36.750Z,99.90
2023-02-08T08:30:08.175Z,99.90
2023-02-08T08:32:36.328Z,99.90
2023-02-08T08:35:09.491Z,99.90
2023-02-08T08:37:38.230Z,99.90
2023-02-08T08:40:09.936Z,99.90
2023-02-08T08:42:40.900Z,99.90
2023-02-08T08:45:10.283Z,99.90
2023-02-08T08:47:38.529Z,99.90
2023-02-08T08:50:08.758Z,99.90
2023-02-08T08:52:40.186Z,99.90
2023-02-08T08:55:08.836Z,99.90
2023-02-08T08:57:36.977Z,99.90
2023-02-08T09:00:07.835Z,99.90
2023-02-08T09:02:36.273Z,99.90
2023-02-08T09:05:08.577Z,99.90
2023-02-08T09:07:36.705Z,99.90
2023-02-08T09:10:05.404Z,99.90
2023-02-08T09:12:35.959Z,99.90
2023-02-08T09:15:04.214Z,99.90
2023-02-08T09:17:33.046Z,99.90
2023-02-08T09:20:02.320Z,99.90
2023-02-08T09:22:35.133Z,99.90
2023-02-08T09:25:03.285Z,99.90
2023-02-08T09:27:31.864Z,99.90
2023-02-08T09:30:00.138Z,99.90
2023-02-08T09:32:28.310Z,99.90
2023-02-08T09:34:58.820Z,99.90
2023-02-08T09:37:26.959Z,99.90
2023-02-08T09:39:58.553Z,99.90
2023-02-08T09:42:33.433Z,99.90
2023-02-08T09:45:30.924Z,99.90
2023-02-08T09:48:05.111Z,99.90
2023-02-08T09:50:37.629Z,99.90
2023-02-08T09:53:14.551Z,99.90
2023-02-08T09:55:48.013Z,99.90
2023-02-08T09:58:24.691Z,99.90
2023-02-08T10:00:55.010Z,99.90
2023-02-08T10:03:30.685Z,99.90
2023-02-08T10:05:59.278Z,99.90
2023-02-08T10:08:35.256Z,99.90
2023-02-08T10:11:21.813Z,99.90
2023-02-08T10:14:05.771Z,99.90
2023-02-08T10:16:46.037Z,99.90
2023-02-08T10:19:28.005Z,99.90
2023-02-08T10:22:08.978Z,99.90
2023-02-08T10:24:58.221Z,99.90
2023-02-08T10:27:34.785Z,99.90
2023-02-08T10:30:19.521Z,99.90
2023-02-08T10:33:01.301Z,99.90
2023-02-08T10:35:37.022Z,99.90
2023-02-08T10:38:34.423Z,99.90
2023-02-08T10:41:10.252Z,99.90
2023-02-08T10:43:46.775Z,99.90
2023-02-08T10:46:22.111Z,99.90
2023-02-08T10:49:03.599Z,99.90
2023-02-08T10:51:32.268Z,99.90
2023-02-08T10:54:00.415Z,99.90
2023-02-08T10:56:43.617Z,99.90
2023-02-08T10:59:20.045Z,99.90
2023-02-08T11:01:50.145Z,99.90
2023-02-08T11:04:19.343Z,99.90
2023-02-08T11:06:51.754Z,99.90
2023-02-08T11:09:29.397Z,99.90
2023-02-08T11:11:59.530Z,99.90
2023-02-08T11:14:45.454Z,99.90
2023-02-08T11:17:27.782Z,99.90
2023-02-08T11:19:57.646Z,99.90
2023-02-08T11:22:31.351Z,99.90
2023-02-08T11:25:03.118Z,99.90
2023-02-08T11:27:36.488Z,99.90
2023-02-08T11:30:24.241Z,99.90
2023-02-08T11:33:18.530Z,99.90
2023-02-08T11:35:56.255Z,99.90
2023-02-08T11:38:28.164Z,99.90
2023-02-08T11:40:58.192Z,99.90
2023-02-08T11:43:28.528Z,99.90
2023-02-08T11:46:03.177Z,99.90
2023-02-08T11:48:43.394Z,99.30
2023-02-08T11:51:14.951Z,99.70
2023-02-08T11:53:48.732Z,99.90
2023-02-08T11:56:22.061Z,99.90
2023-02-08T11:59:15.541Z,99.90
2023-02-08T12:01:47.688Z,99.90
2023-02-08T12:04:17.659Z,99.90
2023-02-08T12:07:19.148Z,99.90
2023-02-08T12:10:38.704Z,99.10
2023-02-08T12:13:27.343Z,99.20
2023-02-08T12:16:05.264Z,98.70
2023-02-08T12:19:04.971Z,99.90
2023-02-08T12:21:39.149Z,99.90
2023-02-08T12:24:16.053Z,99.90
2023-02-08T12:27:01.452Z,98.80
2023-02-08T12:29:47.420Z,98.70
2023-02-08T12:32:41.809Z,96.90
2023-02-08T12:36:02.866Z,98.50
2023-02-08T12:39:18.384Z,97.60
2023-02-08T12:42:05.468Z,96.00
2023-02-08T12:44:41.654Z,95.80
2023-02-08T12:47:29.392Z,93.80
2023-02-08T12:50:07.152Z,94.20
2023-02-08T12:52:39.991Z,92.70
2023-02-08T12:55:17.402Z,94.70
2023-02-08T12:57:50.179Z,95.70
2023-02-08T13:00:22.904Z,95.60
2023-02-08T13:02:59.213Z,91.90
2023-02-08T13:05:36.474Z,90.00
2023-02-08T13:08:18.057Z,90.30
2023-02-08T13:10:54.576Z,90.10
2023-02-08T13:13:27.889Z,87.50
2023-02-08T13:16:02.555Z,80.50
2023-02-08T13:18:33.539Z,85.40
2023-02-08T13:21:08.118Z,86.60
2023-02-08T13:23:51.747Z,84.90
2023-02-08T13:26:26.304Z,84.40
2023-02-08T13:29:00.982Z,84.70
2023-02-08T13:31:33.561Z,85.50
2023-02-08T13:34:08.084Z,80.60
2023-02-08T13:36:39.233Z,82.00
2023-02-08T13:39:36.065Z,80.70
2023-02-08T13:42:06.899Z,80.80
2023-02-08T13:44:39.573Z,82.30
2023-02-08T13:47:25.266Z,82.50
2023-02-08T13:50:00.157Z,77.40
2023-02-08T13:52:49.108Z,73.50
2023-02-08T13:55:46.076Z,75.40
2023-02-08T13:58:38.241Z,77.20
2023-02-08T14:01:21.568Z,72.60
2023-02-08T14:04:29.814Z,71.30
2023-02-08T14:07:02.356Z,71.10
2023-02-08T14:09:42.270Z,64.80
2023-02-08T14:12:22.565Z,68.10
2023-02-08T14:15:21.999Z,68.30
2023-02-08T14:17:54.746Z,64.30
2023-02-08T14:20:34.500Z,66.30
2023-02-08T14:23:05.534Z,67.50
2023-02-08T14:25:44.657Z,67.30
2023-02-08T14:28:28.787Z,63.60
2023-02-08T14:31:04.011Z,65.70
2023-02-08T14:33:37.419Z,64.80
2023-02-08T14:36:08.497Z,67.80
2023-02-08T14:39:15.678Z,67.50
2023-02-08T14:41:49.765Z,66.30
2023-02-08T14:44:54.216Z,67.50
2023-02-08T14:47:56.594Z,68.50
2023-02-08T14:50:29.154Z,69.20
2023-02-08T14:53:06.473Z,67.50
2023-02-08T14:55:46.662Z,68.50
2023-02-08T14:58:22.625Z,67.50
2023-02-08T15:00:53.011Z,67.50
2023-02-08T15:03:23.258Z,68.00
2023-02-08T15:06:32.420Z,70.50
2023-02-08T15:09:03.131Z,70.40
2023-02-08T15:11:36.056Z,70.30
2023-02-08T15:14:07.046Z,68.40
2023-02-08T15:16:42.847Z,68.00
2023-02-08T15:19:22.597Z,68.00
2023-02-08T15:21:51.051Z,68.90
2023-02-08T15:24:22.466Z,68.80
2023-02-08T15:26:55.251Z,70.00
2023-02-08T15:29:35.716Z,69.70
2023-02-08T15:32:15.006Z,67.80
2023-02-08T15:34:51.190Z,68.50
2023-02-08T15:37:20.311Z,68.40
2023-02-08T15:39:52.123Z,67.80
2023-02-08T15:42:23.621Z,68.20
2023-02-08T15:44:52.679Z,67.70
2023-02-08T15:47:27.680Z,67.20
2023-02-08T15:49:59.968Z,68.30
2023-02-08T15:52:32.855Z,69.20
2023-02-08T15:55:03.707Z,69.20
2023-02-08T15:57:40.158Z,69.60
2023-02-08T16:00:17.509Z,70.30
2023-02-08T16:02:51.625Z,70.60
2023-02-08T16:05:23.740Z,71.40
2023-02-08T16:07:54.708Z,73.30
2023-02-08T16:10:33.557Z,74.70
2023-02-08T16:13:08.463Z,76.40
2023-02-08T16:15:44.949Z,78.90
2023-02-08T16:18:36.528Z,80.30
2023-02-08T16:21:27.736Z,81.20
2023-02-08T16:23:57.999Z,81.70
2023-02-08T16:26:29.079Z,84.00
2023-02-08T16:29:00.432Z,85.40
2023-02-08T16:31:35.274Z,86.90
2023-02-08T16:34:06.054Z,90.20
2023-02-08T16:36:38.291Z,92.50
2023-02-08T16:39:46.881Z,91.50
2023-02-08T16:42:30.583Z,91.90
2023-02-08T16:45:03.281Z,93.70
2023-02-08T16:47:37.753Z,95.60
2023-02-08T16:50:10.203Z,97.50
2023-02-08T16:52:40.604Z,98.90
2023-02-08T16:55:12.810Z,98.90
2023-02-08T16:57:42.466Z,98.90
2023-02-08T17:00:29.576Z,99.40
2023-02-08T17:02:58.172Z,99.90
2023-02-08T17:05:29.631Z,99.90
2023-02-08T17:07:59.976Z,99.90
2023-02-08T17:10:33.082Z,99.90
2023-02-08T17:13:20.837Z,99.90
2023-02-08T17:15:51.620Z,99.90
2023-02-08T17:18:20.284Z,99.90
2023-02-08T17:20:57.802Z,99.90
2023-02-08T17:23:29.768Z,99.90
2023-02-08T17:25:58.350Z,99.90
2023-02-08T17:28:27.969Z,99.90
2023-02-08T17:30:56.353Z,99.90
2023-02-08T17:33:26.084Z,99.90
2023-02-08T17:35:55.220Z,99.90
2023-02-08T17:38:23.382Z,99.90
2023-02-08T17:40:52.994Z,99.90
2023-02-08T17:43:23.194Z,99.90
2023-02-08T17:45:51.339Z,99.90
2023-02-08T17:48:19.481Z,99.90
2023-02-08T17:50:51.082Z,99.90
2023-02-08T17:53:22.125Z,99.90
2023-02-08T17:55:50.321Z,99.90
2023-02-08T17:58:19.960Z,99.90
2023-02-08T18:00:48.152Z,99.90
2023-02-08T18:03:17.258Z,99.90
2023-02-08T18:05:47.955Z,99.90
2023-02-08T18:08:18.654Z,99.90
2023-02-08T18:10:47.113Z,99.90
2023-02-08T18:13:16.252Z,99.90
2023-02-08T18:15:48.607Z,99.90
2023-02-08T18:18:18.272Z,99.90
2023-02-08T18:20:47.272Z,99.90
2023-02-08T18:23:17.720Z,99.90
2023-02-08T18:25:46.122Z,99.90
2023-02-08T18:28:16.417Z,99.90
2023-02-08T18:30:44.768Z,99.90
2023-02-08T18:33:14.278Z,99.90
2023-02-08T18:35:48.506Z,99.90
2023-02-08T18:38:19.641Z,99.90
2023-02-08T18:40:47.812Z,99.90
2023-02-08T18:43:16.024Z,99.90
2023-02-08T18:45:48.323Z,99.90
2023-02-08T18:48:21.323Z,99.90
2023-02-08T18:50:55.861Z,99.90
2023-02-08T18:53:24.879Z,99.90
2023-02-08T18:55:55.970Z,99.90
2023-02-08T18:58:25.119Z,99.90
2023-02-08T19:00:53.751Z,99.90
2023-02-08T19:03:25.520Z,99.90
2023-02-08T19:05:56.949Z,99.90
2023-02-08T19:08:25.114Z,99.90
2023-02-08T19:10:53.416Z,99.90
2023-02-08T19:13:21.592Z,99.90
2023-02-08T19:15:52.374Z,99.90
2023-02-08T19:18:25.223Z,99.90
2023-02-08T19:20:55.897Z,99.90
2023-02-08T19:23:26.168Z,99.90
2023-02-08T19:25:54.329Z,99.90
2023-02-08T19:28:22.462Z,99.90
2023-02-08T19:30:50.682Z,99.90
2023-02-08T19:33:18.811Z,99.90
2023-02-08T19:35:50.683Z,99.90
2023-02-08T19:38:21.122Z,99.90
2023-02-08T19:40:54.005Z,99.90
2023-02-08T19:43:25.194Z,99.90
2023-02-08T19:45:53.439Z,99.90
2023-02-08T19:48:22.095Z,99.90
2023-02-08T19:50:59.702Z,99.90
2023-02-08T19:53:30.795Z,99.90
2023-02-08T19:55:59.501Z,99.90
2023-02-08T19:58:28.671Z,99.90
2023-02-08T20:00:57.068Z,99.90
2023-02-08T20:03:25.717Z,99.90
2023-02-08T20:05:55.167Z,99.90
2023-02-08T20:08:27.702Z,99.90
2023-02-08T20:10:56.384Z,99.90
2023-02-08T20:13:24.569Z,99.90
2023-02-08T20:15:59.773Z,99.90
2023-02-08T20:18:28.053Z,99.90
2023-02-08T20:21:03.686Z,99.90
2023-02-08T20:23:36.064Z,99.90
2023-02-08T20:26:09.429Z,99.90
2023-02-08T20:28:41.587Z,99.90
2023-02-08T20:31:11.465Z,99.90
2023-02-08T20:33:42.854Z,99.90
2023-02-08T20:36:15.502Z,99.90
2023-02-08T20:38:49.020Z,99.90
2023-02-08T20:41:18.106Z,99.90
2023-02-08T20:43:49.526Z,99.90
2023-02-08T20:46:20.678Z,99.90
2023-02-08T20:48:48.858Z,99.90
2023-02-08T20:51:20.092Z,99.90
2023-02-08T20:53:50.513Z,99.90
2023-02-08T20:56:24.065Z,99.90
2023-02-08T20:58:53.544Z,99.90
2023-02-08T21:01:23.545Z,99.90
2023-02-08T21:03:53.346Z,99.90
2023-02-08T21:06:23.778Z,99.90
2023-02-08T21:08:55.363Z,99.90
2023-02-08T21:11:25.451Z,99.90
2023-02-08T21:13:53.622Z,99.90
2023-02-08T21:16:22.007Z,99.90
2023-02-08T21:18:51.054Z,99.90
2023-02-08T21:21:19.889Z,99.90
2023-02-08T21:23:48.345Z,99.90
2023-02-08T21:26:21.341Z,99.90
2023-02-08T21:28:53.359Z,99.90
2023-02-08T21:31:25.567Z,99.90
2023-02-08T21:33:54.467Z,99.90
2023-02-08T21:36:25.173Z,99.90
2023-02-08T21:38:53.382Z,99.90
2023-02-08T21:41:24.715Z,99.90
2023-02-08T21:43:55.404Z,99.90
2023-02-08T21:46:24.713Z,99.90
2023-02-08T21:49:10.490Z,99.90
2023-02-08T21:51:58.903Z,99.90
2023-02-08T21:54:44.468Z,99.90
2023-02-08T21:57:16.760Z,99.90
2023-02-08T21:59:45.037Z,99.90
2023-02-08T22:02:21.659Z,99.90
2023-02-08T22:04:59.025Z,99.90
2023-02-08T22:07:28.112Z,99.90
2023-02-08T22:09:57.136Z,99.90
2023-02-08T22:12:28.958Z,99.90
2023-02-08T22:14:59.555Z,99.90
2023-02-08T22:17:27.790Z,99.90
2023-02-08T22:19:58.397Z,99.90
2023-02-08T22:22:27.469Z,99.90
2023-02-08T22:24:55.651Z,99.90
2023-02-08T22:27:23.922Z,99.90
2023-02-08T22:29:53.425Z,99.90
2023-02-08T22:32:21.854Z,99.90
2023-02-08T22:34:50.611Z,99.90
2023-02-08T22:37:19.008Z,99.90
2023-02-08T22:39:47.209Z,99.90
2023-02-08T22:42:17.661Z,99.90
2023-02-08T22:44:46.152Z,99.90
2023-02-08T22:47:15.602Z,99.90
2023-02-08T22:49:45.893Z,99.90
2023-02-08T22:52:17.197Z,99.90
2023-02-08T22:54:47.885Z,99.90
2023-02-08T22:57:16.031Z,99.90
2023-02-08T22:59:44.211Z,99.90
2023-02-08T23:02:12.362Z,99.90
2023-02-08T23:04:41.850Z,99.90
2023-02-08T23:07:12.309Z,99.90
2023-02-08T23:09:42.947Z,99.90
2023-02-08T23:12:11.096Z,99.90
2023-02-08T23:14:41.571Z,99.90
2023-02-08T23:17:12.574Z,99.90
2023-02-08T23:19:44.634Z,99.90
2023-02-08T23:22:13.145Z,99.90
2023-02-08T23:24:41.291Z,99.90
2023-02-08T23:27:09.469Z,99.90
2023-02-08T23:29:39.943Z,99.90
2023-02-08T23:32:08.208Z,99.90
2023-02-08T23:34:38.594Z,99.90
2023-02-08T23:37:10.597Z,99.90
2023-02-08T23:39:41.271Z,99.90
2023-02-08T23:42:25.487Z,99.90
2023-02-08T23:44:53.954Z,99.90
2023-02-08T23:47:23.012Z,99.90
2023-02-08T23:49:51.429Z,99.90
2023-02-08T23:52:23.288Z,99.90
2023-02-08T23:54:51.727Z,99.90
2023-02-08T23:57:19.952Z,99.90
2023-02-08T23:59:48.261Z,99.90
